Time;durP1;ratioP1;P1;durP2;ratioP2;P2;SDS_P1;SDS_P2;PMS_P1;PMS_P2;Temp;Humidity;BMP_temperature;BMP_pressure;BME280_temperature;BME280_humidity;BME280_pressure;Samples;Min_cycle;Max_cycle;Signal;HPM_P1;HPM_P2
2022/10/12 00:01:31;;;;;;;8.30;3.85;;;4.40;99.90;;;;;;5072956;28;20052;-49
2022/10/12 00:03:56;;;;;;;7.35;3.90;;;4.60;99.90;;;;;;5072270;28;20043;-49
2022/10/12 00:06:23;;;;;;;9.50;3.85;;;4.70;99.90;;;;;;5069809;28;20067;-49
2022/10/12 00:08:51;;;;;;;5.22;3.13;;;4.70;99.90;;;;;;5071412;28;20047;-49
2022/10/12 00:11:22;;;;;;;6.53;3.72;;;4.70;99.90;;;;;;5071978;28;20497;-48
2022/10/12 00:13:49;;;;;;;8.25;4.03;;;4.60;99.90;;;;;;5074297;28;20047;-51
2022/10/12 00:16:17;;;;;;;6.40;3.88;;;4.70;99.90;;;;;;5069993;28;20040;-50
2022/10/12 00:18:43;;;;;;;11.65;3.42;;;;;;;;;;5070686;28;20044;-51
2022/10/12 00:21:12;;;;;;;6.43;3.20;;;4.80;99.90;;;;;;5072009;28;20036;-50
2022/10/12 00:23:39;;;;;;;8.93;4.65;;;4.80;99.90;;;;;;5072241;28;20048;-50
2022/10/12 00:26:11;;;;;;;8.57;4.05;;;4.90;99.90;;;;;;5072414;28;20504;-50
2022/10/12 00:28:37;;;;;;;6.07;3.28;;;4.90;99.90;;;;;;5072405;28;20123;-48
2022/10/12 00:31:14;;;;;;;9.60;3.58;;;4.80;99.90;;;;;;5070973;28;20048;-49
2022/10/12 00:33:40;;;;;;;8.55;3.20;;;4.90;99.90;;;;;;5104321;27;20044;-47
2022/10/12 00:36:15;;;;;;;7.40;3.08;;;4.90;99.90;;;;;;5072861;28;20164;-51
2022/10/12 00:38:41;;;;;;;7.43;3.20;;;4.70;99.90;;;;;;5070158;28;20073;-52
2022/10/12 00:41:07;;;;;;;7.75;4.28;;;4.70;99.90;;;;;;5072470;28;20032;-52
2022/10/12 00:43:40;;;;;;;9.93;5.05;;;4.90;99.90;;;;;;5070497;28;20044;-51
2022/10/12 00:46:10;;;;;;;10.57;4.47;;;4.80;99.90;;;;;;5072547;28;20417;-52
2022/10/12 00:48:38;;;;;;;8.15;4.32;;;4.70;99.90;;;;;;5072436;28;20065;-49
2022/10/12 00:51:04;;;;;;;12.43;4.70;;;4.80;99.90;;;;;;5072228;28;20048;-52
2022/10/12 00:53:38;;;;;;;11.73;4.40;;;4.70;99.90;;;;;;5072912;28;20045;-49
2022/10/12 00:56:08;;;;;;;10.98;4.43;;;4.80;99.90;;;;;;5071188;28;20496;-50
2022/10/12 00:58:34;;;;;;;9.60;4.55;;;4.90;99.90;;;;;;5070464;28;20033;-51
2022/10/12 01:01:04;;;;;;;8.98;3.92;;;4.80;99.90;;;;;;5071933;28;20040;-49
2022/10/12 01:03:31;;;;;;;13.93;4.10;;;4.80;99.90;;;;;;5070907;28;20044;-47
2022/10/12 01:05:57;;;;;;;11.35;3.90;;;4.70;99.90;;;;;;5071668;28;20044;-51
2022/10/12 01:08:23;;;;;;;9.65;3.90;;;4.70;99.90;;;;;;5071924;28;20385;-51
2022/10/12 01:10:49;;;;;;;9.05;4.13;;;4.80;99.90;;;;;;5069319;28;20073;-49
2022/10/12 01:13:14;;;;;;;7.18;4.00;;;4.60;99.90;;;;;;5070963;28;20075;-49
2022/10/12 01:15:50;;;;;;;9.85;3.42;;;4.60;99.90;;;;;;5072855;28;20048;-51
2022/10/12 01:18:42;;;;;;;7.22;4.22;;;4.70;99.90;;;;;;5070692;28;20472;-49
2022/10/12 01:21:14;;;;;;;8.60;3.17;;;4.50;99.90;;;;;;5041624;28;20048;-49
2022/10/12 01:24:01;;;;;;;10.15;3.45;;;4.50;99.90;;;;;;5071005;28;20079;-51
2022/10/12 01:26:30;;;;;;;7.20;3.58;;;4.50;99.90;;;;;;5070590;28;20047;-49
2022/10/12 01:29:04;;;;;;;7.68;3.15;;;4.50;99.90;;;;;;5069830;28;20117;-48
2022/10/12 01:31:48;;;;;;;7.53;2.88;;;4.60;99.90;;;;;;5069442;28;20043;-50
2022/10/12 01:34:32;;;;;;;6.65;2.80;;;4.40;99.90;;;;;;5070901;28;20123;-52
2022/10/12 01:37:08;;;;;;;6.90;2.78;;;4.40;99.90;;;;;;5052756;28;20044;-52
2022/10/12 01:39:40;;;;;;;7.63;2.70;;;4.40;99.90;;;;;;5071346;28;20040;-51
2022/10/12 01:42:16;;;;;;;8.60;2.78;;;4.50;99.90;;;;;;5069667;28;20131;-49
2022/10/12 01:44:42;;;;;;;6.78;2.70;;;4.30;99.90;;;;;;5069882;28;20051;-50
2022/10/12 01:47:08;;;;;;;10.30;3.00;;;4.60;99.90;;;;;;5068745;28;20048;-52
2022/10/12 01:49:34;;;;;;;7.45;3.10;;;4.70;99.90;;;;;;5071010;28;20040;-52
2022/10/12 01:52:09;;;;;;;19.25;5.13;;;4.70;99.90;;;;;;5069383;28;20097;-49
2022/10/12 01:54:56;;;;;;;11.70;4.45;;;4.80;99.90;;;;;;5069502;28;20135;-50
2022/10/12 01:57:25;;;;;;;6.57;3.55;;;4.80;99.90;;;;;;5069981;28;20283;-49
2022/10/12 02:00:10;;;;;;;8.85;3.15;;;4.90;99.90;;;;;;5070599;28;20044;-51
2022/10/12 02:03:09;;;;;;;7.22;3.28;;;5.00;99.90;;;;;;5068656;28;20044;-51
2022/10/12 02:05:43;;;;;;;8.18;3.25;;;5.00;99.90;;;;;;5052261;28;20059;-50
2022/10/12 02:08:30;;;;;;;7.28;3.40;;;5.00;99.90;;;;;;5070163;28;20135;-51
2022/10/12 02:11:03;;;;;;;8.65;3.90;;;5.00;99.90;;;;;;5070010;28;20086;-52
2022/10/12 02:13:35;;;;;;;5.60;2.85;;;5.10;99.90;;;;;;5072151;28;20040;-50
2022/10/12 02:16:05;;;;;;;9.53;4.00;;;5.20;99.90;;;;;;5071524;28;20040;-50
2022/10/12 02:18:34;;;;;;;13.88;5.30;;;5.40;99.90;;;;;;5069391;28;20376;-52
2022/10/12 02:21:02;;;;;;;10.27;4.03;;;5.40;99.90;;;;;;5069375;28;20040;-49
2022/10/12 02:23:29;;;;;;;11.95;5.78;;;5.40;99.90;;;;;;5069542;28;20043;-51
2022/10/12 02:25:57;;;;;;;19.17;5.18;;;5.50;99.90;;;;;;5069399;28;20122;-52
2022/10/12 02:28:27;;;;;;;9.57;3.92;;;5.60;99.90;;;;;;5069995;28;20063;-52
2022/10/12 02:31:11;;;;;;;12.30;4.72;;;5.60;99.90;;;;;;5069656;28;20087;-51
2022/10/12 02:33:45;;;;;;;14.55;4.82;;;5.70;99.90;;;;;;5071534;28;20051;-50
2022/10/12 02:36:20;;;;;;;12.80;5.55;;;5.70;99.90;;;;;;5069400;28;20058;-51
2022/10/12 02:39:00;;;;;;;10.05;3.92;;;5.60;99.90;;;;;;5067676;28;20447;-49
2022/10/12 02:41:36;;;;;;;11.30;4.30;;;5.80;99.90;;;;;;5069615;28;20036;-51
2022/10/12 02:44:07;;;;;;;16.73;4.70;;;5.80;99.90;;;;;;5068857;28;20756;-51
2022/10/12 02:46:34;;;;;;;18.08;4.55;;;5.70;99.90;;;;;;5069855;28;20517;-48
2022/10/12 02:49:02;;;;;;;14.27;4.40;;;5.80;99.90;;;;;;5052972;28;20529;-52
2022/10/12 02:51:29;;;;;;;14.90;5.07;;;5.60;99.90;;;;;;5070022;28;20501;-53
2022/10/12 02:53:55;;;;;;;15.38;5.82;;;5.80;99.90;;;;;;5067752;28;20052;-50
2022/10/12 02:56:22;;;;;;;14.73;6.03;;;5.60;99.90;;;;;;5066953;28;20044;-53
2022/10/12 02:58:48;;;;;;;11.70;4.55;;;5.90;99.90;;;;;;5069153;28;20959;-53
2022/10/12 03:01:15;;;;;;;14.07;4.60;;;5.80;99.90;;;;;;5069648;28;20453;-52
2022/10/12 03:03:42;;;;;;;11.70;4.10;;;5.70;99.90;;;;;;5068440;28;20040;-50
2022/10/12 03:06:08;;;;;;;14.70;6.38;;;6.60;99.90;;;;;;5068608;28;20055;-50
2022/10/12 03:08:34;;;;;;;13.02;4.20;;;5.60;99.90;;;;;;5068686;28;20044;-51
2022/10/12 03:11:01;;;;;;;10.25;4.13;;;5.70;99.90;;;;;;5069576;28;20043;-52
2022/10/12 03:13:27;;;;;;;12.40;3.70;;;5.70;99.90;;;;;;5068019;28;20043;-50
2022/10/12 03:15:52;;;;;;;11.18;4.15;;;5.60;99.90;;;;;;5070128;28;20036;-51
2022/10/12 03:18:18;;;;;;;10.48;4.25;;;6.60;99.90;;;;;;5068675;28;20729;-53
2022/10/12 03:20:47;;;;;;;13.98;3.83;;;5.80;99.90;;;;;;5068515;28;20044;-53
2022/10/12 03:23:13;;;;;;;8.57;3.67;;;5.50;99.90;;;;;;5068300;28;20045;-49
2022/10/12 03:25:40;;;;;;;15.50;3.95;;;5.70;99.90;;;;;;5067581;28;20036;-52
2022/10/12 03:28:06;;;;;;;6.78;3.50;;;5.70;99.90;;;;;;5067945;28;20047;-53
2022/10/12 03:30:32;;;;;;;11.95;3.70;;;5.60;99.90;;;;;;5070862;28;20044;-52
2022/10/12 03:32:57;;;;;;;11.02;3.60;;;6.00;99.90;;;;;;5069972;28;20048;-51
2022/10/12 03:35:23;;;;;;;7.57;3.30;;;5.70;99.90;;;;;;5070060;28;20043;-51
2022/10/12 03:37:49;;;;;;;8.77;3.47;;;5.50;99.90;;;;;;5070068;28;20024;-51
2022/10/12 03:40:14;;;;;;;9.80;3.00;;;5.50;99.90;;;;;;5073231;28;20052;-50
2022/10/12 03:42:40;;;;;;;7.28;3.22;;;5.50;99.90;;;;;;5072656;28;20048;-53
2022/10/12 03:45:06;;;;;;;9.38;2.95;;;5.60;99.90;;;;;;5073601;28;20477;-53
2022/10/12 03:47:32;;;;;;;8.02;2.70;;;5.60;99.90;;;;;;5073994;28;20085;-49
2022/10/12 03:49:57;;;;;;;11.75;4.53;;;5.60;99.90;;;;;;5075836;28;20040;-50
2022/10/12 03:52:23;;;;;;;12.55;3.65;;;5.40;99.90;;;;;;5074241;28;20109;-52
2022/10/12 03:54:49;;;;;;;5.38;2.67;;;5.50;99.90;;;;;;5072510;28;20196;-52
2022/10/12 03:57:14;;;;;;;7.82;3.58;;;5.50;99.90;;;;;;5071227;28;20044;-51
2022/10/12 03:59:40;;;;;;;11.07;3.13;;;5.60;99.90;;;;;;5072086;28;20158;-52
2022/10/12 04:02:06;;;;;;;8.85;2.65;;;5.60;99.90;;;;;;5070806;28;20036;-52
2022/10/12 04:04:32;;;;;;;8.32;3.53;;;5.50;99.90;;;;;;5071037;28;20039;-53
2022/10/12 04:06:57;;;;;;;9.95;3.13;;;5.60;99.90;;;;;;5072991;28;21026;-51
2022/10/12 04:09:23;;;;;;;5.60;2.67;;;5.40;99.90;;;;;;5073333;28;20078;-50
2022/10/12 04:11:49;;;;;;;9.18;2.38;;;5.40;99.90;;;;;;5073167;28;20040;-52
2022/10/12 04:14:14;;;;;;;7.53;2.30;;;5.30;99.90;;;;;;5073418;28;20032;-52
2022/10/12 04:16:40;;;;;;;7.88;2.45;;;5.50;99.90;;;;;;5073942;28;20527;-49
2022/10/12 04:19:07;;;;;;;8.52;2.10;;;5.50;99.90;;;;;;5071051;28;20044;-52
2022/10/12 04:21:33;;;;;;;6.20;2.38;;;5.30;99.90;;;;;;5070571;28;20040;-52
2022/10/12 04:23:59;;;;;;;12.13;2.60;;;5.40;99.90;;;;;;5072268;28;20040;-52
2022/10/12 04:26:24;;;;;;;6.07;2.53;;;5.50;99.90;;;;;;5072255;28;20044;-51
2022/10/12 04:28:50;;;;;;;5.63;2.00;;;5.40;99.90;;;;;;5071470;28;20040;-50
2022/10/12 04:31:16;;;;;;;7.28;2.80;;;5.20;99.90;;;;;;5070919;28;20520;-48
2022/10/12 04:33:41;;;;;;;17.45;3.28;;;5.40;99.90;;;;;;5071004;28;20040;-50
2022/10/12 04:36:07;;;;;;;8.30;3.30;;;5.50;99.90;;;;;;5071470;28;20036;-52
2022/10/12 04:38:33;;;;;;;8.75;2.75;;;;;;;;;;5071616;28;20039;-52
2022/10/12 04:40:59;;;;;;;10.25;3.17;;;5.30;99.90;;;;;;5072659;28;20047;-53
2022/10/12 04:43:25;;;;;;;8.98;2.90;;;5.30;99.90;;;;;;5073176;28;20044;-51
2022/10/12 04:45:58;;;;;;;8.90;2.72;;;5.30;99.90;;;;;;5074381;28;20487;-51
2022/10/12 04:48:24;;;;;;;8.30;2.83;;;5.40;99.90;;;;;;5073464;28;20100;-52
2022/10/12 04:50:50;;;;;;;7.13;2.55;;;5.40;99.90;;;;;;5072151;28;20055;-53
2022/10/12 04:53:16;;;;;;;8.00;3.42;;;;;;;;;;5071433;28;20040;-52
2022/10/12 04:55:42;;;;;;;5.57;2.55;;;5.30;99.90;;;;;;5072323;28;20075;-51
2022/10/12 04:58:07;;;;;;;9.10;3.65;;;5.20;99.90;;;;;;5072427;28;20131;-49
2022/10/12 05:00:33;;;;;;;7.95;2.92;;;;;;;;;;5072605;28;20101;-51
2022/10/12 05:02:59;;;;;;;8.88;3.20;;;5.30;99.90;;;;;;5070784;28;20047;-52
2022/10/12 05:05:25;;;;;;;7.80;3.88;;;5.20;99.90;;;;;;5070720;28;20832;-46
2022/10/12 05:07:51;;;;;;;28.55;3.75;;;5.30;99.90;;;;;;5071703;28;20048;-49
2022/10/12 05:10:17;;;;;;;5.95;2.92;;;5.20;99.90;;;;;;5071140;28;20067;-51
2022/10/12 05:12:42;;;;;;;9.20;3.08;;;5.10;99.90;;;;;;5068232;28;20035;-47
2022/10/12 05:15:09;;;;;;;18.48;3.28;;;5.00;99.90;;;;;;5070774;28;20047;-51
2022/10/12 05:17:35;;;;;;;9.15;3.28;;;5.10;99.90;;;;;;5071898;28;20036;-50
2022/10/12 05:20:00;;;;;;;7.55;2.92;;;5.00;99.90;;;;;;5071617;28;20044;-52
2022/10/12 05:22:26;;;;;;;7.72;2.40;;;;;;;;;;5070831;28;20048;-50
2022/10/12 05:24:52;;;;;;;7.00;2.35;;;5.00;99.90;;;;;;5072073;28;20241;-48
2022/10/12 05:27:18;;;;;;;4.97;2.13;;;5.00;99.90;;;;;;5071046;28;20052;-47
2022/10/12 05:29:43;;;;;;;12.10;2.67;;;4.90;99.90;;;;;;5070844;28;20489;-47
2022/10/12 05:32:09;;;;;;;7.50;2.13;;;4.90;99.90;;;;;;5068883;28;20047;-51
2022/10/12 05:34:35;;;;;;;6.38;2.15;;;4.90;99.90;;;;;;5072034;28;20089;-48
2022/10/12 05:37:01;;;;;;;6.57;2.25;;;5.00;99.90;;;;;;5068188;28;20548;-52
2022/10/12 05:39:27;;;;;;;12.07;2.60;;;4.90;99.90;;;;;;5068365;28;20040;-49
2022/10/12 05:41:54;;;;;;;8.65;2.03;;;5.00;99.90;;;;;;5069670;28;20408;-48
2022/10/12 05:44:20;;;;;;;5.35;2.10;;;5.00;99.90;;;;;;5069078;28;20060;-49
2022/10/12 05:46:46;;;;;;;9.73;2.70;;;5.00;99.90;;;;;;5069927;28;20331;-48
2022/10/12 05:49:11;;;;;;;10.98;4.38;;;5.00;99.90;;;;;;5069575;28;20111;-47
2022/10/12 05:51:38;;;;;;;12.05;4.20;;;5.00;99.90;;;;;;5069478;28;20052;-49
2022/10/12 05:54:04;;;;;;;19.23;6.38;;;5.10;99.90;;;;;;5069032;28;20561;-46
2022/10/12 05:56:30;;;;;;;9.63;3.15;;;5.20;99.90;;;;;;5069157;28;20071;-49
2022/10/12 05:58:55;;;;;;;6.47;2.47;;;5.20;99.90;;;;;;5071428;28;20071;-49
2022/10/12 06:01:22;;;;;;;11.48;4.03;;;;;;;;;;5072088;28;20040;-48
2022/10/12 06:03:48;;;;;;;9.80;4.75;;;;;;;;;;5072371;28;20043;-49
2022/10/12 06:06:13;;;;;;;11.20;4.45;;;5.10;99.90;;;;;;5070041;28;20044;-49
2022/10/12 06:08:39;;;;;;;13.13;4.57;;;4.90;99.90;;;;;;5070768;28;20497;-48
2022/10/12 06:11:06;;;;;;;11.05;3.95;;;;;;;;;;5071602;28;20044;-46
2022/10/12 06:13:31;;;;;;;12.68;4.88;;;5.10;99.90;;;;;;5070975;28;20113;-46
2022/10/12 06:15:58;;;;;;;9.45;4.53;;;;;;;;;;5071845;28;20465;-47
2022/10/12 06:18:24;;;;;;;12.25;5.53;;;;;;;;;;5069858;28;20040;-46
2022/10/12 06:20:52;;;;;;;10.02;4.47;;;5.10;99.90;;;;;;5071517;28;20115;-49
2022/10/12 06:23:19;;;;;;;12.15;4.32;;;5.00;99.90;;;;;;5069389;28;20430;-46
2022/10/12 06:25:47;;;;;;;10.88;4.25;;;5.00;99.90;;;;;;5069264;28;20332;-48
2022/10/12 06:28:14;;;;;;;12.43;5.15;;;4.90;99.90;;;;;;5069722;28;20046;-48
2022/10/12 06:30:40;;;;;;;16.08;6.03;;;5.10;99.90;;;;;;5068251;28;20120;-49
2022/10/12 06:33:06;;;;;;;13.75;6.80;;;5.00;99.90;;;;;;5070275;28;20044;-48
2022/10/12 06:35:32;;;;;;;13.52;7.00;;;5.30;99.90;;;;;;5069249;28;20032;-46
2022/10/12 06:37:58;;;;;;;18.88;8.05;;;5.30;99.90;;;;;;5068516;28;20044;-46
2022/10/12 06:40:23;;;;;;;16.88;6.93;;;5.40;99.90;;;;;;5069618;28;20459;-48
2022/10/12 06:42:49;;;;;;;17.98;7.85;;;5.50;99.90;;;;;;5068180;28;20044;-48
2022/10/12 06:45:16;;;;;;;20.95;8.68;;;5.60;99.90;;;;;;5066807;28;20630;-51
2022/10/12 06:47:42;;;;;;;18.42;8.35;;;5.60;99.90;;;;;;5069234;28;20122;-49
2022/10/12 06:50:08;;;;;;;25.63;8.60;;;5.80;99.90;;;;;;5069254;28;20256;-48
2022/10/12 06:52:34;;;;;;;15.98;8.50;;;5.70;99.90;;;;;;5067804;28;20567;-51
2022/10/12 06:55:00;;;;;;;16.70;7.97;;;6.30;99.90;;;;;;5068854;28;20135;-47
2022/10/12 06:57:26;;;;;;;18.73;8.00;;;6.00;99.90;;;;;;5067601;28;20047;-51
2022/10/12 06:59:52;;;;;;;15.32;7.88;;;6.20;99.90;;;;;;5069017;28;20032;-51
2022/10/12 07:02:17;;;;;;;16.50;7.43;;;6.50;99.90;;;;;;5067861;28;20071;-48
2022/10/12 07:04:43;;;;;;;14.77;6.95;;;7.10;99.90;;;;;;5067909;28;20044;-47
2022/10/12 07:07:09;;;;;;;20.25;7.80;;;8.10;99.90;;;;;;5070273;28;20173;-50
2022/10/12 07:09:35;;;;;;;18.30;7.47;;;8.50;99.90;;;;;;5070949;28;20043;-48
2022/10/12 07:12:00;;;;;;;17.90;7.25;;;9.10;99.90;;;;;;5071176;28;20044;-49
2022/10/12 07:14:26;;;;;;;15.13;7.07;;;7.30;99.90;;;;;;5071900;28;20627;-49
2022/10/12 07:16:52;;;;;;;18.13;6.97;;;7.60;99.90;;;;;;5075002;28;20388;-51
2022/10/12 07:19:18;;;;;;;18.08;6.70;;;7.50;99.90;;;;;;5075415;28;20664;-49
2022/10/12 07:21:43;;;;;;;19.67;6.97;;;8.80;99.90;;;;;;5075094;28;20040;-47
2022/10/12 07:24:12;;;;;;;14.43;5.85;;;8.30;99.90;;;;;;5071148;28;20086;-50
2022/10/12 07:26:38;;;;;;;13.73;5.70;;;8.30;99.90;;;;;;5074053;28;20036;-48
2022/10/12 07:29:03;;;;;;;16.48;6.18;;;9.70;99.90;;;;;;5074213;28;20048;-50
2022/10/12 07:31:29;;;;;;;16.45;5.60;;;8.60;99.90;;;;;;5073747;28;20040;-46
2022/10/12 07:33:55;;;;;;;14.73;5.95;;;11.20;99.90;;;;;;5073055;28;20519;-46
2022/10/12 07:36:21;;;;;;;15.82;5.80;;;11.20;99.90;;;;;;5073256;28;20051;-50
2022/10/12 07:38:47;;;;;;;16.67;5.93;;;9.60;99.90;;;;;;5073317;28;20040;-49
2022/10/12 07:41:14;;;;;;;14.43;5.45;;;10.30;99.90;;;;;;5072892;28;20043;-47
2022/10/12 07:43:40;;;;;;;16.65;5.50;;;9.70;99.90;;;;;;5073046;28;20127;-48
2022/10/12 07:46:07;;;;;;;14.35;5.25;;;9.60;99.90;;;;;;5073793;28;20068;-47
2022/10/12 07:48:33;;;;;;;14.65;5.97;;;9.60;99.90;;;;;;5073948;28;20508;-51
2022/10/12 07:51:03;;;;;;;16.05;5.97;;;11.50;99.90;;;;;;5072029;28;20047;-47
2022/10/12 07:53:29;;;;;;;15.15;6.30;;;11.00;99.90;;;;;;5071666;28;20386;-50
2022/10/12 07:56:06;;;;;;;14.38;5.53;;;9.60;99.90;;;;;;5072191;28;20226;-49
2022/10/12 07:58:32;;;;;;;22.77;5.95;;;9.80;99.90;;;;;;5071036;28;20040;-51
2022/10/12 08:01:08;;;;;;;16.38;4.50;;;10.10;99.90;;;;;;5071907;28;20052;-48
2022/10/12 08:03:34;;;;;;;17.73;5.38;;;10.80;99.90;;;;;;5070616;28;20039;-48
2022/10/12 08:06:09;;;;;;;15.25;4.70;;;10.80;99.90;;;;;;5072750;28;20164;-50
2022/10/12 08:08:35;;;;;;;11.30;4.68;;;10.20;99.90;;;;;;5072630;28;20032;-49
2022/10/12 08:11:01;;;;;;;15.40;4.93;;;11.20;99.90;;;;;;5074250;28;20067;-49
2022/10/12 08:13:27;;;;;;;15.20;5.20;;;10.20;99.90;;;;;;5071445;28;20044;-48
2022/10/12 08:15:52;;;;;;;14.88;5.53;;;10.10;99.90;;;;;;5071552;28;20404;-49
2022/10/12 08:18:18;;;;;;;14.52;5.68;;;10.30;99.90;;;;;;5072892;28;20120;-50
2022/10/12 08:20:44;;;;;;;23.83;4.85;;;10.20;99.90;;;;;;5073986;28;21356;-47
2022/10/12 08:23:09;;;;;;;17.17;4.45;;;12.10;99.90;;;;;;5055455;28;20616;-49
2022/10/12 08:25:36;;;;;;;17.00;5.90;;;10.20;99.90;;;;;;5069730;28;20090;-51
2022/10/12 08:28:03;;;;;;;15.38;5.00;;;10.10;99.90;;;;;;5103642;27;20143;-49
2022/10/12 08:30:29;;;;;;;17.42;5.85;;;10.20;99.90;;;;;;5073745;28;20985;-50
2022/10/12 08:32:54;;;;;;;14.02;4.88;;;10.20;99.90;;;;;;5072413;28;20082;-48
2022/10/12 08:35:20;;;;;;;14.95;4.53;;;10.20;99.90;;;;;;5072606;28;20036;-51
2022/10/12 08:37:46;;;;;;;11.57;4.53;;;10.90;99.90;;;;;;5073319;28;20404;-50
2022/10/12 08:40:23;;;;;;;12.82;4.28;;;10.60;97.50;;;;;;5073275;28;20046;-52
2022/10/12 08:42:56;;;;;;;10.48;4.53;;;10.20;96.40;;;;;;5070834;28;20048;-48
2022/10/12 08:45:33;;;;;;;17.00;5.72;;;10.20;97.80;;;;;;5072171;28;20044;-50
2022/10/12 08:48:24;;;;;;;17.27;4.50;;;10.20;98.60;;;;;;5072507;28;20048;-50
2022/10/12 08:51:01;;;;;;;13.67;4.43;;;10.40;98.20;;;;;;5070065;28;20039;-47
2022/10/12 08:53:47;;;;;;;13.60;4.85;;;11.00;98.40;;;;;;5071725;28;20274;-47
2022/10/12 08:56:17;;;;;;;13.57;5.10;;;10.70;92.80;;;;;;5070155;28;20451;-51
2022/10/12 08:58:44;;;;;;;15.95;6.30;;;10.90;93.80;;;;;;5070334;28;20044;-48
2022/10/12 09:01:29;;;;;;;18.77;6.47;;;10.70;91.10;;;;;;5069452;28;20688;-50
2022/10/12 09:04:08;;;;;;;16.02;5.63;;;11.10;92.70;;;;;;5069667;28;20078;-48
2022/10/12 09:06:43;;;;;;;12.73;5.88;;;11.20;82.80;;;;;;5068915;28;20044;-49
2022/10/12 09:09:21;;;;;;;21.13;7.90;;;11.30;87.10;;;;;;5068861;28;20044;-46
2022/10/12 09:12:04;;;;;;;18.65;7.15;;;11.30;85.90;;;;;;5068600;28;21060;-46
2022/10/12 09:14:36;;;;;;;18.60;6.53;;;11.50;91.30;;;;;;5069871;28;20754;-48
2022/10/12 09:17:20;;;;;;;14.80;6.70;;;13.50;90.80;;;;;;5072888;28;20127;-48
2022/10/12 09:19:46;;;;;;;16.75;6.60;;;12.70;91.90;;;;;;5069699;28;20394;-50
2022/10/12 09:22:19;;;;;;;13.63;5.72;;;12.00;87.60;;;;;;5070668;28;20040;-47
2022/10/12 09:24:47;;;;;;;16.55;6.07;;;12.10;79.90;;;;;;5070696;28;20040;-50
2022/10/12 09:27:16;;;;;;;15.45;6.35;;;12.00;68.40;;;;;;5069438;28;20107;-49
2022/10/12 09:29:48;;;;;;;16.88;6.63;;;12.10;63.10;;;;;;5070611;28;20040;-49
2022/10/12 09:32:34;;;;;;;13.88;5.90;;;12.20;58.80;;;;;;5069964;28;20102;-48
2022/10/12 09:35:02;;;;;;;15.07;5.45;;;12.30;45.30;;;;;;5069463;28;20040;-50
2022/10/12 09:37:30;;;;;;;16.80;6.35;;;12.60;40.50;;;;;;5070523;28;20181;-52
2022/10/12 09:39:57;;;;;;;14.57;5.40;;;12.30;37.30;;;;;;5070524;28;20040;-50
2022/10/12 09:42:22;;;;;;;11.65;4.93;;;12.10;26.80;;;;;;5069176;28;20060;-52
2022/10/12 09:44:52;;;;;;;12.27;4.88;;;12.20;17.60;;;;;;5069198;28;20135;-47
2022/10/12 09:47:22;;;;;;;19.73;5.47;;;12.30;13.20;;;;;;5071172;28;20040;-49
2022/10/12 09:49:53;;;;;;;12.65;5.50;;;13.40;13.60;;;;;;5070951;28;20054;-46
2022/10/12 09:52:23;;;;;;;16.60;5.88;;;12.30;15.00;;;;;;5070648;28;20130;-49
2022/10/12 09:55:14;;;;;;;16.50;5.60;;;12.30;16.40;;;;;;5069616;28;20072;-47
2022/10/12 09:57:42;;;;;;;18.98;5.53;;;12.50;18.10;;;;;;5062550;28;20048;-47
2022/10/12 10:00:28;;;;;;;17.60;5.03;;;12.60;14.60;;;;;;5071247;28;20059;-47
2022/10/12 10:02:55;;;;;;;14.40;5.18;;;12.70;17.20;;;;;;5070697;28;20580;-48
2022/10/12 10:05:25;;;;;;;12.52;4.60;;;12.70;18.00;;;;;;5069254;28;20092;-48
2022/10/12 10:07:52;;;;;;;14.95;4.57;;;13.00;13.40;;;;;;5069861;28;20044;-51
2022/10/12 10:10:24;;;;;;;12.98;4.82;;;13.10;3.00;;;;;;5069955;28;20053;-48
2022/10/12 10:13:12;;;;;;;14.30;4.85;;;13.30;1.00;;;;;;5069650;28;20282;-48
2022/10/12 10:15:38;;;;;;;12.60;5.05;;;13.50;1.00;;;;;;5070232;28;20040;-48
2022/10/12 10:18:20;;;;;;;17.35;5.00;;;13.60;1.00;;;;;;5071507;28;20173;-47
2022/10/12 10:20:51;;;;;;;;;;;13.90;1.00;;;;;;5070011;28;20044;-46
2022/10/12 10:23:26;;;;;;;11.82;4.68;;;13.80;1.00;;;;;;5069243;28;19974;-47
2022/10/12 10:26:04;;;;;;;14.80;4.47;;;13.90;1.00;;;;;;5070020;28;20059;-47
2022/10/12 10:28:38;;;;;;;15.20;4.13;;;14.00;1.00;;;;;;5070348;28;20059;-46
2022/10/12 10:31:16;;;;;;;19.55;4.65;;;14.30;1.00;;;;;;5069671;28;20438;-49
2022/10/12 10:34:06;;;;;;;12.75;3.92;;;14.20;1.00;;;;;;5067933;28;20067;-47
2022/10/12 10:36:53;;;;;;;19.10;5.35;;;14.40;1.00;;;;;;5069565;28;20043;-48
2022/10/12 10:39:46;;;;;;;11.70;4.32;;;14.80;1.00;;;;;;5070022;28;20089;-50
2022/10/12 10:42:33;;;;;;;12.63;3.60;;;14.60;99.90;;;;;;5068134;28;20127;-48
2022/10/12 10:45:29;;;;;;;14.88;4.07;;;14.50;1.00;;;;;;5068522;28;20034;-49
2022/10/12 10:48:36;;;;;;;13.88;3.70;;;14.80;99.90;;;;;;5069768;28;20043;-50
2022/10/12 10:51:05;;;;;;;16.55;4.80;;;15.90;99.90;;;;;;5073163;28;20086;-51
2022/10/12 10:53:44;;;;;;;13.20;3.60;;;14.90;99.90;;;;;;5073359;28;20227;-52
2022/10/12 10:56:30;;;;;;;17.15;3.67;;;14.90;99.90;;;;;;5073018;28;20047;-47
2022/10/12 10:59:03;;;;;;;15.75;5.15;;;15.10;99.90;;;;;;5074972;28;20059;-49
2022/10/12 11:01:51;;;;;;;12.27;3.45;;;15.10;99.90;;;;;;5074228;28;20127;-46
2022/10/12 11:04:39;;;;;;;13.02;3.65;;;15.10;99.90;;;;;;5074768;28;20142;-50
2022/10/12 11:07:20;;;;;;;15.70;3.47;;;15.40;99.90;;;;;;5075276;28;20089;-48
2022/10/12 11:09:52;;;;;;;17.15;3.20;;;15.40;99.90;;;;;;5074693;28;20163;-51
2022/10/12 11:12:24;;;;;;;10.07;3.65;;;15.20;99.90;;;;;;5071479;28;20055;-49
2022/10/12 11:14:57;;;;;;;15.53;3.43;;;15.10;99.90;;;;;;5073267;28;20044;-46
2022/10/12 11:17:41;;;;;;;14.48;3.47;;;15.40;99.90;;;;;;5074582;28;20778;-46
2022/10/12 11:20:44;;;;;;;10.50;2.88;;;15.30;99.90;;;;;;5074771;28;20143;-48
2022/10/12 11:23:22;;;;;;;13.68;3.53;;;15.40;1.00;;;;;;5075279;28;20641;-46
2022/10/12 11:26:02;;;;;;;12.35;3.40;;;15.60;99.90;;;;;;5072015;28;20554;-47
2022/10/12 11:28:31;;;;;;;16.30;3.65;;;15.40;99.90;;;;;;5073186;28;20464;-48
2022/10/12 11:30:59;;;;;;;17.63;3.35;;;15.60;99.90;;;;;;5072611;28;20048;-50
2022/10/12 11:33:29;;;;;;;10.82;2.50;;;15.70;99.90;;;;;;5071227;28;20268;-46
2022/10/12 11:35:57;;;;;;;12.27;2.92;;;15.60;99.90;;;;;;5072992;28;20040;-47
2022/10/12 11:39:02;;;;;;;11.20;2.70;;;15.50;1.00;;;;;;5073134;28;20043;-49
2022/10/12 11:41:45;;;;;;;13.07;2.80;;;15.50;99.90;;;;;;5072878;28;20055;-46
2022/10/12 11:44:26;;;;;;;12.75;3.03;;;15.40;99.90;;;;;;5073872;28;20056;-48
2022/10/12 11:46:52;;;;;;;12.43;3.20;;;15.30;1.00;;;;;;5072621;28;20841;-47
2022/10/12 11:49:34;;;;;;;13.13;2.80;;;17.70;98.90;;;;;;5072734;28;20052;-46
2022/10/12 11:52:07;;;;;;;13.38;3.28;;;15.30;1.00;;;;;;5073388;28;20600;-52
2022/10/12 11:54:45;;;;;;;14.05;3.42;;;15.60;99.90;;;;;;5071930;28;20266;-47
2022/10/12 11:57:16;;;;;;;13.02;3.30;;;15.50;99.90;;;;;;5071448;28;20697;-51
2022/10/12 11:59:55;;;;;;;12.43;2.80;;;15.60;1.00;;;;;;5072497;28;20053;-48
2022/10/12 12:02:31;;;;;;;18.05;3.38;;;15.40;1.00;;;;;;5072508;28;20044;-47
2022/10/12 12:04:57;;;;;;;13.70;2.83;;;15.30;1.00;;;;;;5072498;28;20046;-50
2022/10/12 12:07:55;;;;;;;15.32;3.28;;;15.40;98.30;;;;;;5072222;28;20073;-47
2022/10/12 12:10:27;;;;;;;19.58;2.92;;;15.20;99.90;;;;;;5071504;28;20105;-47
2022/10/12 12:13:13;;;;;;;13.23;2.70;;;15.30;99.90;;;;;;5071444;28;20044;-50
2022/10/12 12:15:41;;;;;;;14.57;2.80;;;15.50;99.90;;;;;;5073029;28;20512;-46
2022/10/12 12:18:21;;;;;;;15.50;2.83;;;15.30;99.90;;;;;;5074892;28;20048;-50
2022/10/12 12:20:47;;;;;;;13.95;2.53;;;15.20;99.90;;;;;;5072368;28;20044;-48
2022/10/12 12:23:30;;;;;;;13.18;2.20;;;15.00;99.90;;;;;;5072975;28;20404;-51
2022/10/12 12:26:06;;;;;;;11.13;2.50;;;14.90;99.90;;;;;;5074144;28;20055;-51
2022/10/12 12:28:32;;;;;;;15.68;2.78;;;15.10;48.80;;;;;;5071651;28;20044;-49
2022/10/12 12:31:23;;;;;;;13.60;2.55;;;15.00;99.90;;;;;;5072421;28;20159;-48
2022/10/12 12:34:19;;;;;;;16.73;2.47;;;15.10;32.50;;;;;;5073534;28;20043;-48
2022/10/12 12:36:48;;;;;;;13.45;2.72;;;15.00;1.00;;;;;;5071460;28;20051;-46
2022/10/12 12:39:23;;;;;;;11.57;2.10;;;14.90;99.90;;;;;;5071595;28;20104;-49
2022/10/12 12:41:59;;;;;;;12.13;2.38;;;15.00;99.90;;;;;;5070833;28;20135;-50
2022/10/12 12:44:41;;;;;;;14.40;2.20;;;13.00;1.00;;;;;;5071192;28;20118;-49
2022/10/12 12:47:09;;;;;;;14.90;2.67;;;14.90;99.90;;;;;;5071736;28;20048;-50
2022/10/12 12:49:41;;;;;;;11.50;2.53;;;16.80;99.90;;;;;;5072985;28;20528;-50
2022/10/12 12:52:31;;;;;;;11.10;2.40;;;15.00;1.00;;;;;;5071588;28;20059;-48
2022/10/12 12:55:03;;;;;;;11.68;2.00;;;15.00;6.90;;;;;;5069154;28;20032;-49
2022/10/12 12:57:43;;;;;;;10.80;2.10;;;14.90;99.90;;;;;;5069102;28;20133;-48
2022/10/12 13:00:19;;;;;;;12.10;2.63;;;15.00;99.90;;;;;;5070540;28;20512;-49
2022/10/12 13:03:06;;;;;;;7.68;1.73;;;15.00;30.40;;;;;;5071446;28;20047;-49
2022/10/12 13:05:55;;;;;;;12.65;2.50;;;15.00;99.90;;;;;;5072308;28;20431;-47
2022/10/12 13:08:55;;;;;;;12.23;2.13;;;14.90;99.90;;;;;;5070659;28;20067;-46
2022/10/12 13:11:48;;;;;;;12.45;2.13;;;14.90;99.90;;;;;;5070475;28;20080;-50